sensor_id;sensor_type;location;lat;lon;timestamp;pressure;altitude;pressure_sealevel;temperature;humidity
51359;BME280;37448;51.588;7.248;2023-05-12T00:01:39;100792.78;;;12.25;100.00
51359;BME280;37448;51.588;7.248;2023-05-12T00:03:40;100786.66;;;12.26;100.00
51359;BME280;37448;51.588;7.248;2023-05-12T00:05:41;100782.22;;;12.28;100.00
51359;BME280;37448;51.588;7.248;2023-05-12T00:07:41;100785.66;;;12.30;100.00
51359;BME280;37448;51.588;7.248;2023-05-12T00:09:41;100783.69;;;12.39;100.00
51359;BME280;37448;51.588;7.248;2023-05-12T00:11:42;100785.56;;;12.33;100.00
51359;BME280;37448;51.588;7.248;2023-05-12T00:13:42;100789.00;;;12.35;100.00
51359;BME280;37448;51.588;7.248;2023-05-12T00:15:43;100788.19;;;12.33;100.00
51359;BME280;37448;51.588;7.248;2023-05-12T00:17:43;100786.53;;;12.31;100.00
51359;BME280;37448;51.588;7.248;2023-05-12T00:19:43;100779.41;;;12.36;100.00
51359;BME280;37448;51.588;7.248;2023-05-12T00:21:44;100780.34;;;12.33;100.00
51359;BME280;37448;51.588;7.248;2023-05-12T00:23:44;100781.06;;;12.39;100.00
51359;BME280;37448;51.588;7.248;2023-05-12T00:25:45;100780.16;;;12.40;100.00
51359;BME280;37448;51.588;7.248;2023-05-12T00:27:45;100778.44;;;12.39;100.00
51359;BME280;37448;51.588;7.248;2023-05-12T00:29:45;100781.97;;;12.38;100.00
51359;BME280;37448;51.588;7.248;2023-05-12T00:31:46;100788.94;;;12.39;100.00
51359;BME280;37448;51.588;7.248;2023-05-12T00:33:46;100773.19;;;12.40;100.00
51359;BME280;37448;51.588;7.248;2023-05-12T00:35:46;100780.25;;;12.37;100.00
51359;BME280;37448;51.588;7.248;2023-05-12T00:37:47;100778.50;;;12.37;100.00
51359;BME280;37448;51.588;7.248;2023-05-12T00:39:47;100773.38;;;12.32;100.00
51359;BME280;37448;51.588;7.248;2023-05-12T00:41:55;100782.13;;;12.33;100.00
51359;BME280;37448;51.588;7.248;2023-05-12T00:43:56;100781.13;;;12.37;100.00
51359;BME280;37448;51.588;7.248;2023-05-12T00:45:56;100782.06;;;12.34;100.00
51359;BME280;37448;51.588;7.248;2023-05-12T00:47:57;100786.56;;;12.29;100.00
51359;BME280;37448;51.588;7.248;2023-05-12T00:49:57;100784.50;;;12.41;100.00
51359;BME280;37448;51.588;7.248;2023-05-12T00:51:58;100785.66;;;12.30;100.00
51359;BME280;37448;51.588;7.248;2023-05-12T00:53:58;100778.72;;;12.29;100.00
51359;BME280;37448;51.588;7.248;2023-05-12T00:55:59;100784.81;;;12.30;100.00
51359;BME280;37448;51.588;7.248;2023-05-12T00:58:01;100782.25;;;12.27;100.00
51359;BME280;37448;51.588;7.248;2023-05-12T01:00:02;100789.97;;;12.33;100.00
51359;BME280;37448;51.588;7.248;2023-05-12T01:02:04;100789.88;;;12.36;100.00
51359;BME280;37448;51.588;7.248;2023-05-12T01:04:06;100792.44;;;12.38;100.00
51359;BME280;37448;51.588;7.248;2023-05-12T01:08:20;100783.00;;;12.32;100.00
51359;BME280;37448;51.588;7.248;2023-05-12T01:10:22;100786.44;;;12.34;100.00
51359;BME280;37448;51.588;7.248;2023-05-12T01:12:23;100786.53;;;12.31;100.00
51359;BME280;37448;51.588;7.248;2023-05-12T01:14:24;100801.19;;;12.38;100.00
51359;BME280;37448;51.588;7.248;2023-05-12T01:16:29;100799.53;;;12.34;100.00
51359;BME280;37448;51.588;7.248;2023-05-12T01:18:32;100801.28;;;12.33;100.00
51359;BME280;37448;51.588;7.248;2023-05-12T01:20:34;100790.06;;;12.30;100.00
51359;BME280;37448;51.588;7.248;2023-05-12T01:22:36;100797.06;;;12.28;100.00
51359;BME280;37448;51.588;7.248;2023-05-12T01:24:44;100797.84;;;12.31;100.00
51359;BME280;37448;51.588;7.248;2023-05-12T01:26:45;100798.78;;;12.29;100.00
51359;BME280;37448;51.588;7.248;2023-05-12T01:28:46;100808.50;;;12.25;100.00
51359;BME280;37448;51.588;7.248;2023-05-12T01:30:47;100797.13;;;12.26;100.00
51359;BME280;37448;51.588;7.248;2023-05-12T01:32:49;100797.94;;;12.28;100.00
51359;BME280;37448;51.588;7.248;2023-05-12T01:34:50;100807.59;;;12.26;100.00
51359;BME280;37448;51.588;7.248;2023-05-12T01:36:50;100805.00;;;12.25;100.00
51359;BME280;37448;51.588;7.248;2023-05-12T01:38:50;100806.59;;;12.30;100.00
51359;BME280;37448;51.588;7.248;2023-05-12T01:40:51;100810.16;;;12.28;100.00
51359;BME280;37448;51.588;7.248;2023-05-12T01:42:53;100805.78;;;12.28;100.00
51359;BME280;37448;51.588;7.248;2023-05-12T01:44:54;100813.69;;;12.27;100.00
51359;BME280;37448;51.588;7.248;2023-05-12T01:46:54;100816.28;;;12.28;100.00
51359;BME280;37448;51.588;7.248;2023-05-12T01:48:56;100813.81;;;12.22;100.00
51359;BME280;37448;51.588;7.248;2023-05-12T01:50:58;100816.44;;;12.22;100.00
51359;BME280;37448;51.588;7.248;2023-05-12T01:52:59;100822.66;;;12.18;100.00
51359;BME280;37448;51.588;7.248;2023-05-12T01:55:00;100815.63;;;12.20;100.00
51359;BME280;37448;51.588;7.248;2023-05-12T01:57:05;100821.81;;;12.16;100.00
51359;BME280;37448;51.588;7.248;2023-05-12T01:59:07;100827.03;;;12.16;100.00
51359;BME280;37448;51.588;7.248;2023-05-12T02:01:07;100817.53;;;12.13;100.00
51359;BME280;37448;51.588;7.248;2023-05-12T02:03:07;100828.91;;;12.11;100.00
51359;BME280;37448;51.588;7.248;2023-05-12T02:05:08;100822.69;;;12.15;100.00
51359;BME280;37448;51.588;7.248;2023-05-12T02:07:09;100828.09;;;12.09;100.00
51359;BME280;37448;51.588;7.248;2023-05-12T02:09:10;100824.59;;;12.10;100.00
51359;BME280;37448;51.588;7.248;2023-05-12T02:11:10;100826.47;;;12.04;100.00
51359;BME280;37448;51.588;7.248;2023-05-12T02:13:11;100830.91;;;12.01;100.00
51359;BME280;37448;51.588;7.248;2023-05-12T02:15:12;100830.03;;;12.00;100.00
51359;BME280;37448;51.588;7.248;2023-05-12T02:17:17;100829.19;;;11.98;100.00
51359;BME280;37448;51.588;7.248;2023-05-12T02:19:18;100831.69;;;12.04;100.00
51359;BME280;37448;51.588;7.248;2023-05-12T02:21:19;100831.69;;;12.04;100.00
51359;BME280;37448;51.588;7.248;2023-05-12T02:23:21;100834.34;;;12.03;100.00
51359;BME280;37448;51.588;7.248;2023-05-12T02:25:21;100837.06;;;11.98;100.00
51359;BME280;37448;51.588;7.248;2023-05-12T02:27:22;100841.41;;;11.98;100.00
51359;BME280;37448;51.588;7.248;2023-05-12T02:29:22;100833.66;;;11.93;100.00
51359;BME280;37448;51.588;7.248;2023-05-12T02:31:23;100840.69;;;11.91;100.00
51359;BME280;37448;51.588;7.248;2023-05-12T02:33:23;100844.09;;;11.96;100.00
51359;BME280;37448;51.588;7.248;2023-05-12T02:35:24;100837.13;;;11.95;100.00
51359;BME280;37448;51.588;7.248;2023-05-12T02:37:24;100843.22;;;11.96;100.00
51359;BME280;37448;51.588;7.248;2023-05-12T02:39:25;100845.91;;;11.92;100.00
51359;BME280;37448;51.588;7.248;2023-05-12T02:41:25;100842.41;;;11.92;100.00
51359;BME280;37448;51.588;7.248;2023-05-12T02:43:25;100837.19;;;11.92;100.00
51359;BME280;37448;51.588;7.248;2023-05-12T02:45:27;100833.75;;;11.90;100.00
51359;BME280;37448;51.588;7.248;2023-05-12T02:47:27;100836.41;;;11.88;100.00
51359;BME280;37448;51.588;7.248;2023-05-12T02:49:30;100840.78;;;11.88;100.00
51359;BME280;37448;51.588;7.248;2023-05-12T02:51:32;100835.53;;;11.88;100.00
51359;BME280;37448;51.588;7.248;2023-05-12T02:53:32;100836.59;;;11.81;100.00
51359;BME280;37448;51.588;7.248;2023-05-12T02:55:32;100832.97;;;11.86;100.00
51359;BME280;37448;51.588;7.248;2023-05-12T02:57:33;100839.06;;;11.87;100.00
51359;BME280;37448;51.588;7.248;2023-05-12T02:59:33;100837.34;;;11.86;100.00
51359;BME280;37448;51.588;7.248;2023-05-12T03:01:34;100837.56;;;11.76;100.00
51359;BME280;37448;51.588;7.248;2023-05-12T03:03:34;100846.16;;;11.82;100.00
51359;BME280;37448;51.588;7.248;2023-05-12T03:05:35;100840.03;;;11.81;100.00
51359;BME280;37448;51.588;7.248;2023-05-12T03:07:35;100837.41;;;11.83;100.00
51359;BME280;37448;51.588;7.248;2023-05-12T03:09:36;100835.69;;;11.82;100.00
51359;BME280;37448;51.588;7.248;2023-05-12T03:11:36;100848.09;;;11.73;100.00
51359;BME280;37448;51.588;7.248;2023-05-12T03:13:37;100844.50;;;11.77;100.00
51359;BME280;37448;51.588;7.248;2023-05-12T03:15:37;100846.19;;;11.80;100.00
51359;BME280;37448;51.588;7.248;2023-05-12T03:17:38;100849.75;;;11.77;100.00
51359;BME280;37448;51.588;7.248;2023-05-12T03:19:38;100847.94;;;11.80;100.00
51359;BME280;37448;51.588;7.248;2023-05-12T03:21:39;100847.06;;;11.79;100.00
51359;BME280;37448;51.588;7.248;2023-05-12T03:23:39;100849.81;;;11.74;100.00
51359;BME280;37448;51.588;7.248;2023-05-12T03:25:39;100845.34;;;11.80;100.00
51359;BME280;37448;51.588;7.248;2023-05-12T03:27:40;100842.78;;;11.76;100.00
51359;BME280;37448;51.588;7.248;2023-05-12T03:29:41;100842.88;;;11.73;100.00
51359;BME280;37448;51.588;7.248;2023-05-12T03:31:42;100848.09;;;11.73;100.00
51359;BME280;37448;51.588;7.248;2023-05-12T03:33:43;100855.06;;;11.74;100.00
51359;BME280;37448;51.588;7.248;2023-05-12T03:35:43;100853.22;;;11.78;100.00
51359;BME280;37448;51.588;7.248;2023-05-12T03:37:44;100854.97;;;11.77;100.00
51359;BME280;37448;51.588;7.248;2023-05-12T03:39:44;100858.50;;;11.75;100.00
51359;BME280;37448;51.588;7.248;2023-05-12T03:41:44;100850.72;;;11.73;100.00
51359;BME280;37448;51.588;7.248;2023-05-12T03:43:45;100851.47;;;11.77;100.00
51359;BME280;37448;51.588;7.248;2023-05-12T03:45:45;100855.88;;;11.76;100.00
51359;BME280;37448;51.588;7.248;2023-05-12T03:47:46;100855.06;;;11.74;100.00
51359;BME280;37448;51.588;7.248;2023-05-12T03:49:46;100855.00;;;11.76;100.00
51359;BME280;37448;51.588;7.248;2023-05-12T03:51:47;100862.97;;;11.71;100.00
51359;BME280;37448;51.588;7.248;2023-05-12T03:53:47;100863.81;;;11.72;100.00
51359;BME280;37448;51.588;7.248;2023-05-12T03:55:47;100863.78;;;11.73;100.00
51359;BME280;37448;51.588;7.248;2023-05-12T03:57:48;100859.47;;;11.71;100.00
51359;BME280;37448;51.588;7.248;2023-05-12T03:59:49;100862.00;;;11.75;100.00
51359;BME280;37448;51.588;7.248;2023-05-12T04:01:51;100864.69;;;11.72;100.00
51359;BME280;37448;51.588;7.248;2023-05-12T04:03:52;100863.91;;;11.67;100.00
51359;BME280;37448;51.588;7.248;2023-05-12T04:05:59;100866.47;;;11.70;100.00
51359;BME280;37448;51.588;7.248;2023-05-12T04:08:00;100858.56;;;11.73;100.00
51359;BME280;37448;51.588;7.248;2023-05-12T04:10:00;100867.31;;;11.72;100.00
51359;BME280;37448;51.588;7.248;2023-05-12T04:12:01;100868.13;;;11.74;100.00
51359;BME280;37448;51.588;7.248;2023-05-12T04:14:01;100871.72;;;11.70;100.00
51359;BME280;37448;51.588;7.248;2023-05-12T04:16:01;100868.13;;;11.74;100.00
51359;BME280;37448;51.588;7.248;2023-05-12T04:18:03;100875.34;;;11.63;100.00
51359;BME280;37448;51.588;7.248;2023-05-12T04:20:03;100884.72;;;11.73;100.00
51359;BME280;37448;51.588;7.248;2023-05-12T04:22:04;100882.28;;;11.66;100.00
51359;BME280;37448;51.588;7.248;2023-05-12T04:24:04;100888.25;;;11.71;100.00
51359;BME280;37448;51.588;7.248;2023-05-12T04:26:08;100895.28;;;11.69;100.00
51359;BME280;37448;51.588;7.248;2023-05-12T04:28:08;100896.19;;;11.66;100.00
51359;BME280;37448;51.588;7.248;2023-05-12T04:30:09;100893.47;;;11.72;100.00
51359;BME280;37448;51.588;7.248;2023-05-12T04:32:12;100895.44;;;11.61;100.00
51359;BME280;37448;51.588;7.248;2023-05-12T04:34:12;100896.13;;;11.69;100.00
51359;BME280;37448;51.588;7.248;2023-05-12T04:36:13;100903.97;;;11.69;100.00
51359;BME280;37448;51.588;7.248;2023-05-12T04:38:14;100907.44;;;11.71;100.00
51359;BME280;37448;51.588;7.248;2023-05-12T04:40:15;100903.94;;;11.72;100.00
51359;BME280;37448;51.588;7.248;2023-05-12T04:42:15;100910.97;;;11.69;100.00
51359;BME280;37448;51.588;7.248;2023-05-12T04:44:15;100910.16;;;11.67;100.00
51359;BME280;37448;51.588;7.248;2023-05-12T04:46:16;100913.59;;;11.69;100.00
51359;BME280;37448;51.588;7.248;2023-05-12T04:48:16;100924.03;;;11.70;100.00
51359;BME280;37448;51.588;7.248;2023-05-12T04:50:17;100923.97;;;11.73;100.00
51359;BME280;37448;51.588;7.248;2023-05-12T04:52:17;100930.13;;;11.69;100.00
51359;BME280;37448;51.588;7.248;2023-05-12T04:54:18;100930.94;;;11.73;100.00
51359;BME280;37448;51.588;7.248;2023-05-12T04:56:18;100939.78;;;11.67;100.00
51359;BME280;37448;51.588;7.248;2023-05-12T04:58:18;100937.88;;;11.75;100.00
51359;BME280;37448;51.588;7.248;2023-05-12T05:00:20;100939.75;;;11.69;100.00
51359;BME280;37448;51.588;7.248;2023-05-12T05:02:21;100937.06;;;11.73;100.00
51359;BME280;37448;51.588;7.248;2023-05-12T05:04:22;100935.91;;;11.85;100.00
51359;BME280;37448;51.588;7.248;2023-05-12T05:06:22;100948.94;;;11.88;100.00
51359;BME280;37448;51.588;7.248;2023-05-12T05:08:23;100950.69;;;11.88;100.00
51359;BME280;37448;51.588;7.248;2023-05-12T05:10:24;100951.34;;;11.98;100.00
51359;BME280;37448;51.588;7.248;2023-05-12T05:12:25;100958.44;;;11.91;100.00
51359;BME280;37448;51.588;7.248;2023-05-12T05:14:26;100954.94;;;11.92;100.00
51359;BME280;37448;51.588;7.248;2023-05-12T05:16:27;100956.56;;;11.99;100.00
51359;BME280;37448;51.588;7.248;2023-05-12T05:18:28;100963.38;;;12.06;100.00
51359;BME280;37448;51.588;7.248;2023-05-12T05:20:29;100969.72;;;11.96;100.00
51359;BME280;37448;51.588;7.248;2023-05-12T05:22:31;100973.97;;;12.00;100.00
51359;BME280;37448;51.588;7.248;2023-05-12T05:24:32;100972.81;;;12.14;100.00
51359;BME280;37448;51.588;7.248;2023-05-12T05:26:32;100974.50;;;12.18;100.00
51359;BME280;37448;51.588;7.248;2023-05-12T05:28:34;100975.97;;;12.30;100.00
51359;BME280;37448;51.588;7.248;2023-05-12T05:30:34;100983.75;;;12.33;100.00
51359;BME280;37448;51.588;7.248;2023-05-12T05:32:36;100994.91;;;12.40;100.00
51359;BME280;37448;51.588;7.248;2023-05-12T05:34:39;100990.50;;;12.42;100.00
51359;BME280;37448;51.588;7.248;2023-05-12T05:36:39;100996.63;;;12.41;100.00
51359;BME280;37448;51.588;7.248;2023-05-12T05:38:40;100989.66;;;12.41;100.00
51359;BME280;37448;51.588;7.248;2023-05-12T05:40:42;100998.31;;;12.45;100.00
51359;BME280;37448;51.588;7.248;2023-05-12T05:42:42;100995.06;;;12.33;99.85
51359;BME280;37448;51.588;7.248;2023-05-12T05:44:43;100993.06;;;12.45;99.88
51359;BME280;37448;51.588;7.248;2023-05-12T05:46:44;101002.75;;;12.41;99.27
51359;BME280;37448;51.588;7.248;2023-05-12T05:48:45;100999.09;;;12.48;99.99
51359;BME280;37448;51.588;7.248;2023-05-12T05:50:46;101008.13;;;12.35;97.75
51359;BME280;37448;51.588;7.248;2023-05-12T05:52:46;101001.09;;;12.37;97.60
51359;BME280;37448;51.588;7.248;2023-05-12T05:54:47;101004.50;;;12.41;97.77
51359;BME280;37448;51.588;7.248;2023-05-12T05:56:49;101010.50;;;12.46;98.83
51359;BME280;37448;51.588;7.248;2023-05-12T05:58:50;101010.50;;;12.46;98.34
51359;BME280;37448;51.588;7.248;2023-05-12T06:00:50;101008.56;;;12.54;100.00
51359;BME280;37448;51.588;7.248;2023-05-12T06:02:51;101013.31;;;12.37;96.46
51359;BME280;37448;51.588;7.248;2023-05-12T06:04:54;101010.34;;;12.52;98.40
51359;BME280;37448;51.588;7.248;2023-05-12T06:06:54;101010.44;;;12.49;96.63
51359;BME280;37448;51.588;7.248;2023-05-12T06:08:54;101015.44;;;12.58;98.28
51359;BME280;37448;51.588;7.248;2023-05-12T06:10:55;101021.66;;;12.54;97.79
51359;BME280;37448;51.588;7.248;2023-05-12T06:12:56;101020.91;;;12.49;96.51
51359;BME280;37448;51.588;7.248;2023-05-12T06:14:56;101020.00;;;12.50;96.87
51359;BME280;37448;51.588;7.248;2023-05-12T06:16:56;101025.34;;;12.47;97.13
51359;BME280;37448;51.588;7.248;2023-05-12T06:18:57;101033.13;;;12.50;95.92
51359;BME280;37448;51.588;7.248;2023-05-12T06:20:58;101034.16;;;12.43;94.28
51359;BME280;37448;51.588;7.248;2023-05-12T06:22:58;101032.22;;;12.51;95.93
51359;BME280;37448;51.588;7.248;2023-05-12T06:24:59;101034.69;;;12.57;95.90
51359;BME280;37448;51.588;7.248;2023-05-12T06:27:00;101032.97;;;12.56;95.94
51359;BME280;37448;51.588;7.248;2023-05-12T06:29:00;101038.94;;;12.61;95.91
51359;BME280;37448;51.588;7.248;2023-05-12T06:31:00;101043.28;;;12.62;96.69
51359;BME280;37448;51.588;7.248;2023-05-12T06:33:01;101039.78;;;12.63;97.56
51359;BME280;37448;51.588;7.248;2023-05-12T06:35:01;101047.50;;;12.70;97.40
51359;BME280;37448;51.588;7.248;2023-05-12T06:37:02;101041.50;;;12.64;96.96
51359;BME280;37448;51.588;7.248;2023-05-12T06:39:03;101053.66;;;12.69;96.68
51359;BME280;37448;51.588;7.248;2023-05-12T06:41:04;101049.97;;;12.76;98.21
51359;BME280;37448;51.588;7.248;2023-05-12T06:43:04;101052.81;;;12.67;96.05
51359;BME280;37448;51.588;7.248;2023-05-12T06:45:09;101055.28;;;12.73;97.25
51359;BME280;37448;51.588;7.248;2023-05-12T06:47:11;101055.38;;;12.70;97.01
51359;BME280;37448;51.588;7.248;2023-05-12T06:49:11;101051.97;;;12.64;96.94
51359;BME280;37448;51.588;7.248;2023-05-12T06:51:12;101060.94;;;12.54;93.82
51359;BME280;37448;51.588;7.248;2023-05-12T06:53:13;101057.34;;;12.60;96.32
51359;BME280;37448;51.588;7.248;2023-05-12T06:55:13;101058.94;;;12.66;97.54
51359;BME280;37448;51.588;7.248;2023-05-12T06:57:18;101072.56;;;12.44;92.71
51359;BME280;37448;51.588;7.248;2023-05-12T06:59:18;101063.56;;;12.54;96.24
51359;BME280;37448;51.588;7.248;2023-05-12T07:01:19;101068.66;;;12.62;97.32
51359;BME280;37448;51.588;7.248;2023-05-12T07:03:19;101069.72;;;12.53;95.14
51359;BME280;37448;51.588;7.248;2023-05-12T07:05:20;101068.78;;;12.56;95.56
51359;BME280;37448;51.588;7.248;2023-05-12T07:07:21;101078.41;;;12.55;94.96
51359;BME280;37448;51.588;7.248;2023-05-12T07:09:21;101077.72;;;12.47;94.15
51359;BME280;37448;51.588;7.248;2023-05-12T07:11:22;101080.25;;;12.50;93.73
51359;BME280;37448;51.588;7.248;2023-05-12T07:13:22;101070.38;;;12.63;97.02
51359;BME280;37448;51.588;7.248;2023-05-12T07:15:23;101080.34;;;12.47;92.50
51359;BME280;37448;51.588;7.248;2023-05-12T07:17:23;101087.06;;;12.57;95.06
51359;BME280;37448;51.588;7.248;2023-05-12T07:19:23;101075.78;;;12.55;94.80
51359;BME280;37448;51.588;7.248;2023-05-12T07:21:24;101084.38;;;12.60;95.90
51359;BME280;37448;51.588;7.248;2023-05-12T07:23:24;101088.81;;;12.58;95.39
51359;BME280;37448;51.588;7.248;2023-05-12T07:25:25;101087.22;;;12.51;94.41
51359;BME280;37448;51.588;7.248;2023-05-12T07:27:25;101087.16;;;12.53;94.15
51359;BME280;37448;51.588;7.248;2023-05-12T07:29:26;101088.19;;;12.47;94.00
51359;BME280;37448;51.588;7.248;2023-05-12T07:31:26;101092.38;;;12.54;96.25
51359;BME280;37448;51.588;7.248;2023-05-12T07:33:27;101088.88;;;12.55;96.11
51359;BME280;37448;51.588;7.248;2023-05-12T07:35:28;101094.25;;;12.49;95.28
51359;BME280;37448;51.588;7.248;2023-05-12T07:37:28;101098.53;;;12.53;96.10
51359;BME280;37448;51.588;7.248;2023-05-12T07:39:29;101095.97;;;12.50;95.95
51359;BME280;37448;51.588;7.248;2023-05-12T07:41:31;101107.22;;;12.55;96.59
51359;BME280;37448;51.588;7.248;2023-05-12T07:43:32;101096.94;;;12.46;94.71
51359;BME280;37448;51.588;7.248;2023-05-12T07:45:32;101101.06;;;12.58;96.36
51359;BME280;37448;51.588;7.248;2023-05-12T07:47:32;101104.59;;;12.55;95.61
51359;BME280;37448;51.588;7.248;2023-05-12T07:49:33;101104.81;;;12.46;92.20
51359;BME280;37448;51.588;7.248;2023-05-12T07:51:33;101108.09;;;12.54;94.03
51359;BME280;37448;51.588;7.248;2023-05-12T07:53:34;101107.97;;;12.60;95.45
51359;BME280;37448;51.588;7.248;2023-05-12T07:55:34;101109.81;;;12.55;94.50
51359;BME280;37448;51.588;7.248;2023-05-12T07:57:34;101119.38;;;12.58;94.54
51359;BME280;37448;51.588;7.248;2023-05-12T07:59:35;101113.84;;;12.70;98.08
51359;BME280;37448;51.588;7.248;2023-05-12T08:01:35;101105.97;;;12.72;95.85
51359;BME280;37448;51.588;7.248;2023-05-12T08:03:36;101111.06;;;12.78;97.22
51359;BME280;37448;51.588;7.248;2023-05-12T08:05:36;101104.69;;;12.88;98.33
51359;BME280;37448;51.588;7.248;2023-05-12T08:07:37;101102.03;;;12.91;98.02
51359;BME280;37448;51.588;7.248;2023-05-12T08:09:38;101116.09;;;12.87;94.42
51359;BME280;37448;51.588;7.248;2023-05-12T08:11:38;101121.91;;;13.00;95.94
51359;BME280;37448;51.588;7.248;2023-05-12T08:13:38;101120.16;;;12.99;94.45
51359;BME280;37448;51.588;7.248;2023-05-12T08:15:39;101119.97;;;13.09;95.86
51359;BME280;37448;51.588;7.248;2023-05-12T08:17:39;101120.97;;;13.03;91.93
51359;BME280;37448;51.588;7.248;2023-05-12T08:19:40;101126.97;;;13.08;92.07
51359;BME280;37448;51.588;7.248;2023-05-12T08:21:40;101129.28;;;13.20;92.62
51359;BME280;37448;51.588;7.248;2023-05-12T08:23:41;101126.53;;;13.25;90.90
51359;BME280;37448;51.588;7.248;2023-05-12T08:25:41;101128.97;;;13.33;88.78
51359;BME280;37448;51.588;7.248;2023-05-12T08:27:43;101124.94;;;13.56;92.00
51359;BME280;37448;51.588;7.248;2023-05-12T08:29:44;101120.38;;;13.64;88.25
51359;BME280;37448;51.588;7.248;2023-05-12T08:31:44;101121.34;;;13.91;91.68
51359;BME280;37448;51.588;7.248;2023-05-12T08:33:45;101126.88;;;14.14;92.61
51359;BME280;37448;51.588;7.248;2023-05-12T08:35:45;101126.59;;;14.23;87.05
51359;BME280;37448;51.588;7.248;2023-05-12T08:37:46;101127.78;;;14.43;88.81
51359;BME280;37448;51.588;7.248;2023-05-12T08:39:46;101129.75;;;14.64;91.14
51359;BME280;37448;51.588;7.248;2023-05-12T08:41:53;101124.66;;;14.58;85.68
51359;BME280;37448;51.588;7.248;2023-05-12T08:43:58;101127.47;;;14.82;89.65
51359;BME280;37448;51.588;7.248;2023-05-12T08:45:59;101125.81;;;14.80;86.30
51359;BME280;37448;51.588;7.248;2023-05-12T08:48:02;101130.53;;;14.97;91.25
51359;BME280;37448;51.588;7.248;2023-05-12T08:50:04;101140.81;;;14.76;83.46
51359;BME280;37448;51.588;7.248;2023-05-12T08:52:05;101134.75;;;14.74;81.51
51359;BME280;37448;51.588;7.248;2023-05-12T08:54:07;101137.88;;;14.87;88.17
51359;BME280;37448;51.588;7.248;2023-05-12T08:56:10;101129.88;;;14.90;84.98
51359;BME280;37448;51.588;7.248;2023-05-12T08:58:11;101138.63;;;14.90;84.02
51359;BME280;37448;51.588;7.248;2023-05-12T09:00:12;101138.97;;;15.08;86.06
51359;BME280;37448;51.588;7.248;2023-05-12T09:02:14;101144.94;;;15.13;85.04
51359;BME280;37448;51.588;7.248;2023-05-12T09:04:16;101141.06;;;14.97;80.49
51359;BME280;37448;51.588;7.248;2023-05-12T09:06:17;101138.91;;;15.10;84.32
51359;BME280;37448;51.588;7.248;2023-05-12T09:08:17;101137.63;;;15.21;83.80
51359;BME280;37448;51.588;7.248;2023-05-12T09:10:20;101140.97;;;15.27;84.12
51359;BME280;37448;51.588;7.248;2023-05-12T09:12:21;101143.13;;;15.41;86.26
51359;BME280;37448;51.588;7.248;2023-05-12T09:14:24;101138.00;;;15.63;91.79
51359;BME280;37448;51.588;7.248;2023-05-12T09:16:28;101139.94;;;15.58;80.99
51359;BME280;37448;51.588;7.248;2023-05-12T09:18:43;101144.88;;;15.67;84.02
51359;BME280;37448;51.588;7.248;2023-05-12T09:20:45;101137.78;;;15.69;83.70
51359;BME280;37448;51.588;7.248;2023-05-12T09:22:45;101146.25;;;15.77;85.57
51359;BME280;37448;51.588;7.248;2023-05-12T09:24:45;101142.63;;;15.56;76.40
51359;BME280;37448;51.588;7.248;2023-05-12T09:26:48;101146.38;;;15.74;88.44
51359;BME280;37448;51.588;7.248;2023-05-12T09:28:51;101148.31;;;15.69;82.03
51359;BME280;37448;51.588;7.248;2023-05-12T09:30:52;101150.56;;;15.80;86.25
51359;BME280;37448;51.588;7.248;2023-05-12T09:33:04;101151.66;;;15.74;80.03
51359;BME280;37448;51.588;7.248;2023-05-12T09:35:06;101150.78;;;15.48;75.95
51359;BME280;37448;51.588;7.248;2023-05-12T09:37:07;101144.78;;;15.70;82.94
51359;BME280;37448;51.588;7.248;2023-05-12T09:39:09;101154.38;;;15.71;78.66
51359;BME280;37448;51.588;7.248;2023-05-12T09:41:09;101149.50;;;15.86;83.07
51359;BME280;37448;51.588;7.248;2023-05-12T09:43:10;101157.16;;;15.93;84.18
51359;BME280;37448;51.588;7.248;2023-05-12T09:45:13;101158.44;;;16.07;83.71
51359;BME280;37448;51.588;7.248;2023-05-12T09:47:13;101141.06;;;16.25;89.80
51359;BME280;37448;51.588;7.248;2023-05-12T09:49:19;101141.16;;;16.24;82.78
51359;BME280;37448;51.588;7.248;2023-05-12T09:51:19;101144.50;;;16.27;77.19
51359;BME280;37448;51.588;7.248;2023-05-12T09:53:20;101152.41;;;16.51;86.04
51359;BME280;37448;51.588;7.248;2023-05-12T09:55:22;101146.34;;;16.25;77.18
51359;BME280;37448;51.588;7.248;2023-05-12T09:57:23;101156.88;;;16.25;80.33
51359;BME280;37448;51.588;7.248;2023-05-12T09:59:29;101158.78;;;16.45;81.88
51359;BME280;37448;51.588;7.248;2023-05-12T10:01:30;101157.88;;;16.69;86.67
51359;BME280;37448;51.588;7.248;2023-05-12T10:03:32;101157.34;;;16.60;78.76
51359;BME280;37448;51.588;7.248;2023-05-12T10:05:33;101155.25;;;16.69;77.24
51359;BME280;37448;51.588;7.248;2023-05-12T10:07:35;101150.97;;;16.88;78.80
51359;BME280;37448;51.588;7.248;2023-05-12T10:09:37;101157.63;;;16.99;75.69
51359;BME280;37448;51.588;7.248;2023-05-12T10:11:41;101147.50;;;17.10;74.56
51359;BME280;37448;51.588;7.248;2023-05-12T10:13:42;101150.72;;;17.39;77.36
51359;BME280;37448;51.588;7.248;2023-05-12T10:15:43;101148.03;;;17.41;76.60
51359;BME280;37448;51.588;7.248;2023-05-12T10:17:44;101158.91;;;17.54;71.88
51359;BME280;37448;51.588;7.248;2023-05-12T10:19:46;101144.53;;;17.61;69.33
51359;BME280;37448;51.588;7.248;2023-05-12T10:21:48;101142.16;;;17.75;78.50
51359;BME280;37448;51.588;7.248;2023-05-12T10:23:49;101152.56;;;17.78;74.13
51359;BME280;37448;51.588;7.248;2023-05-12T10:25:53;101146.88;;;17.88;79.66
51359;BME280;37448;51.588;7.248;2023-05-12T10:27:54;101138.16;;;17.86;71.86
51359;BME280;37448;51.588;7.248;2023-05-12T10:29:55;101143.47;;;18.06;78.15
51359;BME280;37448;51.588;7.248;2023-05-12T10:31:55;101143.47;;;18.06;72.59